sensor_id;sensor_type;location;lat;lon;timestamp;P1;durP1;ratioP1;P2;durP2;ratioP2
35847;SDS011;22332;51.954;20.118;2023-02-18T00:01:26;7.00;;;2.40;;
35847;SDS011;22332;51.954;20.118;2023-02-18T00:04:32;10.70;;;4.20;;
35847;SDS011;22332;51.954;20.118;2023-02-18T00:07:38;11.30;;;3.60;;
35847;SDS011;22332;51.954;20.118;2023-02-18T00:10:44;8.30;;;2.00;;
35847;SDS011;22332;51.954;20.118;2023-02-18T00:13:50;6.60;;;1.60;;
35847;SDS011;22332;51.954;20.118;2023-02-18T00:16:57;7.00;;;2.30;;
35847;SDS011;22332;51.954;20.118;2023-02-18T00:20:04;7.20;;;2.60;;
35847;SDS011;22332;51.954;20.118;2023-02-18T00:23:11;9.60;;;2.60;;
35847;SDS011;22332;51.954;20.118;2023-02-18T00:26:17;7.20;;;2.50;;
35847;SDS011;22332;51.954;20.118;2023-02-18T00:29:23;7.60;;;1.80;;
35847;SDS011;22332;51.954;20.118;2023-02-18T00:32:29;8.10;;;2.00;;
35847;SDS011;22332;51.954;20.118;2023-02-18T00:35:36;5.60;;;2.20;;
35847;SDS011;22332;51.954;20.118;2023-02-18T00:38:44;6.80;;;2.10;;
35847;SDS011;22332;51.954;20.118;2023-02-18T00:41:50;4.90;;;1.60;;
35847;SDS011;22332;51.954;20.118;2023-02-18T00:44:56;5.60;;;1.30;;
35847;SDS011;22332;51.954;20.118;2023-02-18T00:48:01;5.10;;;2.10;;
35847;SDS011;22332;51.954;20.118;2023-02-18T00:51:07;7.90;;;2.40;;
35847;SDS011;22332;51.954;20.118;2023-02-18T00:54:13;7.20;;;2.20;;
35847;SDS011;22332;51.954;20.118;2023-02-18T00:57:19;6.40;;;2.70;;
35847;SDS011;22332;51.954;20.118;2023-02-18T01:00:25;7.10;;;2.20;;
35847;SDS011;22332;51.954;20.118;2023-02-18T01:03:31;7.90;;;2.20;;
35847;SDS011;22332;51.954;20.118;2023-02-18T01:06:37;8.20;;;3.00;;
35847;SDS011;22332;51.954;20.118;2023-02-18T01:09:42;9.60;;;3.30;;
35847;SDS011;22332;51.954;20.118;2023-02-18T01:12:50;6.40;;;1.50;;
35847;SDS011;22332;51.954;20.118;2023-02-18T01:15:55;6.50;;;1.80;;
35847;SDS011;22332;51.954;20.118;2023-02-18T01:19:01;6.50;;;2.30;;
35847;SDS011;22332;51.954;20.118;2023-02-18T01:22:06;6.40;;;1.90;;
35847;SDS011;22332;51.954;20.118;2023-02-18T01:25:12;6.60;;;1.70;;
35847;SDS011;22332;51.954;20.118;2023-02-18T01:28:18;8.50;;;2.20;;
35847;SDS011;22332;51.954;20.118;2023-02-18T01:31:27;6.80;;;1.60;;
35847;SDS011;22332;51.954;20.118;2023-02-18T01:34:35;7.60;;;2.00;;
35847;SDS011;22332;51.954;20.118;2023-02-18T01:37:40;10.60;;;2.60;;
35847;SDS011;22332;51.954;20.118;2023-02-18T01:40:47;9.70;;;2.30;;
35847;SDS011;22332;51.954;20.118;2023-02-18T01:47:21;7.60;;;2.10;;
35847;SDS011;22332;51.954;20.118;2023-02-18T01:50:27;9.30;;;2.60;;
35847;SDS011;22332;51.954;20.118;2023-02-18T01:53:36;10.00;;;1.70;;
35847;SDS011;22332;51.954;20.118;2023-02-18T01:56:47;7.80;;;2.00;;
35847;SDS011;22332;51.954;20.118;2023-02-18T01:59:59;9.10;;;2.40;;
35847;SDS011;22332;51.954;20.118;2023-02-18T02:03:22;7.40;;;2.00;;
35847;SDS011;22332;51.954;20.118;2023-02-18T02:06:28;9.60;;;1.80;;
35847;SDS011;22332;51.954;20.118;2023-02-18T02:09:34;6.50;;;1.70;;
35847;SDS011;22332;51.954;20.118;2023-02-18T02:12:45;6.30;;;1.60;;
35847;SDS011;22332;51.954;20.118;2023-02-18T02:16:03;8.60;;;1.90;;
35847;SDS011;22332;51.954;20.118;2023-02-18T02:26:38;6.00;;;1.60;;
35847;SDS011;22332;51.954;20.118;2023-02-18T02:37:17;5.80;;;1.30;;
35847;SDS011;22332;51.954;20.118;2023-02-18T02:40:30;8.80;;;1.80;;
35847;SDS011;22332;51.954;20.118;2023-02-18T02:43:45;6.70;;;1.50;;
35847;SDS011;22332;51.954;20.118;2023-02-18T02:46:59;8.00;;;2.40;;
35847;SDS011;22332;51.954;20.118;2023-02-18T02:50:12;11.60;;;4.10;;
35847;SDS011;22332;51.954;20.118;2023-02-18T02:53:23;8.40;;;1.90;;
35847;SDS011;22332;51.954;20.118;2023-02-18T02:56:31;9.10;;;2.40;;
35847;SDS011;22332;51.954;20.118;2023-02-18T02:59:38;5.50;;;1.70;;
35847;SDS011;22332;51.954;20.118;2023-02-18T03:02:53;8.10;;;2.00;;
35847;SDS011;22332;51.954;20.118;2023-02-18T03:06:18;9.20;;;2.20;;
35847;SDS011;22332;51.954;20.118;2023-02-18T03:09:40;5.90;;;1.60;;
35847;SDS011;22332;51.954;20.118;2023-02-18T03:12:59;6.90;;;1.90;;
35847;SDS011;22332;51.954;20.118;2023-02-18T03:16:15;9.10;;;1.70;;
35847;SDS011;22332;51.954;20.118;2023-02-18T03:19:30;9.80;;;2.20;;
35847;SDS011;22332;51.954;20.118;2023-02-18T03:22:43;6.20;;;2.00;;
35847;SDS011;22332;51.954;20.118;2023-02-18T03:25:50;7.50;;;1.90;;
35847;SDS011;22332;51.954;20.118;2023-02-18T03:28:56;7.20;;;1.80;;
35847;SDS011;22332;51.954;20.118;2023-02-18T03:32:06;5.80;;;2.10;;
35847;SDS011;22332;51.954;20.118;2023-02-18T03:35:16;7.20;;;2.00;;
35847;SDS011;22332;51.954;20.118;2023-02-18T03:38:24;7.00;;;1.50;;
35847;SDS011;22332;51.954;20.118;2023-02-18T03:41:33;7.00;;;1.50;;
35847;SDS011;22332;51.954;20.118;2023-02-18T03:44:39;8.50;;;1.40;;
35847;SDS011;22332;51.954;20.118;2023-02-18T03:47:45;9.00;;;1.90;;
35847;SDS011;22332;51.954;20.118;2023-02-18T03:50:51;14.80;;;1.80;;
35847;SDS011;22332;51.954;20.118;2023-02-18T03:53:57;11.10;;;2.10;;
35847;SDS011;22332;51.954;20.118;2023-02-18T03:57:02;6.60;;;1.30;;
35847;SDS011;22332;51.954;20.118;2023-02-18T04:00:09;6.10;;;1.70;;
35847;SDS011;22332;51.954;20.118;2023-02-18T04:03:18;6.40;;;1.30;;
35847;SDS011;22332;51.954;20.118;2023-02-18T04:06:24;8.20;;;1.50;;
35847;SDS011;22332;51.954;20.118;2023-02-18T04:09:29;6.60;;;1.60;;
35847;SDS011;22332;51.954;20.118;2023-02-18T04:12:35;7.30;;;1.40;;
35847;SDS011;22332;51.954;20.118;2023-02-18T04:15:41;7.70;;;1.40;;
35847;SDS011;22332;51.954;20.118;2023-02-18T04:18:46;7.20;;;1.80;;
35847;SDS011;22332;51.954;20.118;2023-02-18T04:21:52;7.00;;;1.40;;
35847;SDS011;22332;51.954;20.118;2023-02-18T04:24:57;9.10;;;1.50;;
35847;SDS011;22332;51.954;20.118;2023-02-18T04:28:03;10.70;;;1.80;;
35847;SDS011;22332;51.954;20.118;2023-02-18T04:31:09;8.90;;;1.80;;
35847;SDS011;22332;51.954;20.118;2023-02-18T04:34:15;6.80;;;1.90;;
35847;SDS011;22332;51.954;20.118;2023-02-18T04:37:21;7.90;;;1.40;;
35847;SDS011;22332;51.954;20.118;2023-02-18T04:40:26;9.90;;;2.10;;
35847;SDS011;22332;51.954;20.118;2023-02-18T04:43:32;7.90;;;1.40;;
35847;SDS011;22332;51.954;20.118;2023-02-18T04:46:38;7.80;;;1.80;;
35847;SDS011;22332;51.954;20.118;2023-02-18T04:49:43;10.20;;;2.10;;
35847;SDS011;22332;51.954;20.118;2023-02-18T04:52:49;10.50;;;1.80;;
35847;SDS011;22332;51.954;20.118;2023-02-18T04:55:54;6.30;;;1.30;;
35847;SDS011;22332;51.954;20.118;2023-02-18T04:59:01;6.80;;;1.60;;
35847;SDS011;22332;51.954;20.118;2023-02-18T05:02:06;8.40;;;1.90;;
35847;SDS011;22332;51.954;20.118;2023-02-18T05:05:12;9.90;;;1.90;;
35847;SDS011;22332;51.954;20.118;2023-02-18T05:08:18;6.50;;;1.60;;
35847;SDS011;22332;51.954;20.118;2023-02-18T05:11:24;5.30;;;1.20;;
35847;SDS011;22332;51.954;20.118;2023-02-18T05:14:29;5.40;;;1.60;;
35847;SDS011;22332;51.954;20.118;2023-02-18T05:17:35;6.90;;;1.40;;
35847;SDS011;22332;51.954;20.118;2023-02-18T05:20:41;8.00;;;1.60;;
35847;SDS011;22332;51.954;20.118;2023-02-18T05:23:47;9.10;;;1.90;;
35847;SDS011;22332;51.954;20.118;2023-02-18T05:26:53;3.90;;;1.60;;
35847;SDS011;22332;51.954;20.118;2023-02-18T05:29:59;8.50;;;2.80;;
35847;SDS011;22332;51.954;20.118;2023-02-18T05:33:04;6.90;;;1.90;;
35847;SDS011;22332;51.954;20.118;2023-02-18T05:36:10;6.50;;;1.70;;
35847;SDS011;22332;51.954;20.118;2023-02-18T05:39:15;5.30;;;1.90;;
35847;SDS011;22332;51.954;20.118;2023-02-18T05:42:21;8.60;;;1.60;;
35847;SDS011;22332;51.954;20.118;2023-02-18T05:45:26;18.50;;;9.60;;
35847;SDS011;22332;51.954;20.118;2023-02-18T05:48:32;43.50;;;15.30;;
35847;SDS011;22332;51.954;20.118;2023-02-18T05:51:37;34.10;;;17.20;;
35847;SDS011;22332;51.954;20.118;2023-02-18T05:54:43;18.20;;;8.10;;
35847;SDS011;22332;51.954;20.118;2023-02-18T05:57:48;20.30;;;8.80;;
35847;SDS011;22332;51.954;20.118;2023-02-18T06:00:54;10.20;;;3.80;;
35847;SDS011;22332;51.954;20.118;2023-02-18T06:04:00;32.80;;;8.30;;
35847;SDS011;22332;51.954;20.118;2023-02-18T06:07:05;11.30;;;3.10;;
35847;SDS011;22332;51.954;20.118;2023-02-18T06:10:11;8.40;;;2.20;;
35847;SDS011;22332;51.954;20.118;2023-02-18T06:13:17;21.20;;;10.40;;
35847;SDS011;22332;51.954;20.118;2023-02-18T06:16:22;21.50;;;11.20;;
35847;SDS011;22332;51.954;20.118;2023-02-18T06:19:28;12.00;;;4.70;;
35847;SDS011;22332;51.954;20.118;2023-02-18T06:22:34;8.50;;;2.70;;
35847;SDS011;22332;51.954;20.118;2023-02-18T06:25:39;7.10;;;2.40;;
35847;SDS011;22332;51.954;20.118;2023-02-18T06:28:45;50.40;;;24.40;;
35847;SDS011;22332;51.954;20.118;2023-02-18T06:31:51;38.70;;;18.90;;
35847;SDS011;22332;51.954;20.118;2023-02-18T06:34:56;14.00;;;5.20;;
35847;SDS011;22332;51.954;20.118;2023-02-18T06:38:02;9.00;;;3.00;;
35847;SDS011;22332;51.954;20.118;2023-02-18T06:41:07;9.80;;;4.50;;
35847;SDS011;22332;51.954;20.118;2023-02-18T06:44:14;16.80;;;5.10;;
35847;SDS011;22332;51.954;20.118;2023-02-18T06:47:19;11.50;;;4.50;;
35847;SDS011;22332;51.954;20.118;2023-02-18T06:50:25;10.10;;;4.20;;
35847;SDS011;22332;51.954;20.118;2023-02-18T06:53:31;12.90;;;4.20;;
35847;SDS011;22332;51.954;20.118;2023-02-18T06:56:37;9.90;;;3.50;;
35847;SDS011;22332;51.954;20.118;2023-02-18T06:59:43;11.60;;;4.30;;
35847;SDS011;22332;51.954;20.118;2023-02-18T07:02:49;11.30;;;3.40;;
35847;SDS011;22332;51.954;20.118;2023-02-18T07:05:54;11.00;;;2.80;;
35847;SDS011;22332;51.954;20.118;2023-02-18T07:09:00;10.00;;;3.40;;
35847;SDS011;22332;51.954;20.118;2023-02-18T07:12:06;10.30;;;3.70;;
35847;SDS011;22332;51.954;20.118;2023-02-18T07:15:11;10.70;;;4.10;;
35847;SDS011;22332;51.954;20.118;2023-02-18T07:18:17;11.20;;;4.30;;
35847;SDS011;22332;51.954;20.118;2023-02-18T07:21:22;10.30;;;3.30;;
35847;SDS011;22332;51.954;20.118;2023-02-18T07:24:28;9.10;;;3.00;;
35847;SDS011;22332;51.954;20.118;2023-02-18T07:27:33;12.30;;;3.60;;
35847;SDS011;22332;51.954;20.118;2023-02-18T07:30:39;6.40;;;2.50;;
35847;SDS011;22332;51.954;20.118;2023-02-18T07:33:45;11.40;;;3.20;;
35847;SDS011;22332;51.954;20.118;2023-02-18T07:36:50;16.30;;;4.60;;
35847;SDS011;22332;51.954;20.118;2023-02-18T07:39:56;30.70;;;14.40;;
35847;SDS011;22332;51.954;20.118;2023-02-18T07:43:02;13.80;;;5.00;;
35847;SDS011;22332;51.954;20.118;2023-02-18T07:46:07;8.50;;;2.90;;
35847;SDS011;22332;51.954;20.118;2023-02-18T07:49:13;8.90;;;2.80;;
35847;SDS011;22332;51.954;20.118;2023-02-18T07:52:19;9.30;;;2.80;;
35847;SDS011;22332;51.954;20.118;2023-02-18T07:55:24;175.20;;;60.00;;
35847;SDS011;22332;51.954;20.118;2023-02-18T07:58:51;14.60;;;4.20;;
35847;SDS011;22332;51.954;20.118;2023-02-18T08:01:56;9.40;;;3.50;;
35847;SDS011;22332;51.954;20.118;2023-02-18T08:05:02;8.60;;;3.30;;
35847;SDS011;22332;51.954;20.118;2023-02-18T08:08:07;10.40;;;2.70;;
35847;SDS011;22332;51.954;20.118;2023-02-18T08:11:15;9.60;;;2.40;;
35847;SDS011;22332;51.954;20.118;2023-02-18T08:14:21;9.50;;;4.10;;
35847;SDS011;22332;51.954;20.118;2023-02-18T08:17:26;9.30;;;3.10;;
35847;SDS011;22332;51.954;20.118;2023-02-18T08:20:32;38.00;;;17.40;;
35847;SDS011;22332;51.954;20.118;2023-02-18T08:23:40;14.50;;;4.20;;
35847;SDS011;22332;51.954;20.118;2023-02-18T08:26:45;13.70;;;5.70;;
35847;SDS011;22332;51.954;20.118;2023-02-18T08:29:51;10.40;;;2.20;;
35847;SDS011;22332;51.954;20.118;2023-02-18T08:32:57;9.30;;;2.30;;
35847;SDS011;22332;51.954;20.118;2023-02-18T08:36:05;13.50;;;3.20;;
35847;SDS011;22332;51.954;20.118;2023-02-18T08:39:12;10.30;;;2.20;;
35847;SDS011;22332;51.954;20.118;2023-02-18T08:42:18;12.70;;;2.90;;
35847;SDS011;22332;51.954;20.118;2023-02-18T08:45:23;11.50;;;3.10;;
35847;SDS011;22332;51.954;20.118;2023-02-18T08:48:29;14.00;;;4.00;;
35847;SDS011;22332;51.954;20.118;2023-02-18T08:51:35;9.40;;;2.50;;
35847;SDS011;22332;51.954;20.118;2023-02-18T08:54:41;22.60;;;9.30;;
35847;SDS011;22332;51.954;20.118;2023-02-18T08:57:46;8.90;;;2.00;;
35847;SDS011;22332;51.954;20.118;2023-02-18T09:00:52;12.50;;;3.40;;
35847;SDS011;22332;51.954;20.118;2023-02-18T09:03:57;15.10;;;3.50;;
35847;SDS011;22332;51.954;20.118;2023-02-18T09:07:03;14.20;;;3.40;;
35847;SDS011;22332;51.954;20.118;2023-02-18T09:10:09;7.50;;;2.20;;
35847;SDS011;22332;51.954;20.118;2023-02-18T09:13:15;9.80;;;2.40;;
35847;SDS011;22332;51.954;20.118;2023-02-18T09:16:20;13.00;;;2.90;;
35847;SDS011;22332;51.954;20.118;2023-02-18T09:19:26;13.30;;;3.60;;
35847;SDS011;22332;51.954;20.118;2023-02-18T09:22:32;9.90;;;2.50;;
35847;SDS011;22332;51.954;20.118;2023-02-18T09:25:39;12.80;;;2.70;;
35847;SDS011;22332;51.954;20.118;2023-02-18T09:28:45;6.80;;;2.60;;
35847;SDS011;22332;51.954;20.118;2023-02-18T09:31:51;13.80;;;2.90;;
35847;SDS011;22332;51.954;20.118;2023-02-18T09:34:56;13.50;;;3.00;;
35847;SDS011;22332;51.954;20.118;2023-02-18T09:38:02;12.10;;;3.10;;
35847;SDS011;22332;51.954;20.118;2023-02-18T09:41:09;18.00;;;6.30;;
35847;SDS011;22332;51.954;20.118;2023-02-18T09:44:26;20.60;;;8.00;;
35847;SDS011;22332;51.954;20.118;2023-02-18T09:47:36;19.80;;;7.10;;
35847;SDS011;22332;51.954;20.118;2023-02-18T09:50:46;20.50;;;7.30;;
35847;SDS011;22332;51.954;20.118;2023-02-18T09:53:55;20.30;;;7.90;;
35847;SDS011;22332;51.954;20.118;2023-02-18T09:57:00;32.40;;;13.70;;
35847;SDS011;22332;51.954;20.118;2023-02-18T10:00:12;50.30;;;21.00;;
35847;SDS011;22332;51.954;20.118;2023-02-18T10:03:23;28.40;;;12.50;;
35847;SDS011;22332;51.954;20.118;2023-02-18T10:06:30;39.70;;;19.90;;
35847;SDS011;22332;51.954;20.118;2023-02-18T10:09:38;30.80;;;13.50;;
35847;SDS011;22332;51.954;20.118;2023-02-18T10:12:44;17.60;;;5.50;;
35847;SDS011;22332;51.954;20.118;2023-02-18T10:15:50;48.00;;;22.50;;
35847;SDS011;22332;51.954;20.118;2023-02-18T10:18:56;43.10;;;18.40;;
35847;SDS011;22332;51.954;20.118;2023-02-18T10:22:04;17.40;;;6.80;;
35847;SDS011;22332;51.954;20.118;2023-02-18T10:25:16;13.30;;;5.90;;
35847;SDS011;22332;51.954;20.118;2023-02-18T10:28:24;11.40;;;3.70;;
35847;SDS011;22332;51.954;20.118;2023-02-18T10:31:32;15.40;;;6.60;;
35847;SDS011;22332;51.954;20.118;2023-02-18T10:34:41;30.30;;;14.50;;
35847;SDS011;22332;51.954;20.118;2023-02-18T10:37:55;40.60;;;21.10;;
35847;SDS011;22332;51.954;20.118;2023-02-18T10:41:08;14.50;;;5.20;;
35847;SDS011;22332;51.954;20.118;2023-02-18T10:44:25;23.70;;;11.40;;
35847;SDS011;22332;51.954;20.118;2023-02-18T10:47:41;36.90;;;18.80;;
35847;SDS011;22332;51.954;20.118;2023-02-18T10:50:56;53.70;;;30.90;;
35847;SDS011;22332;51.954;20.118;2023-02-18T10:54:05;12.70;;;5.70;;
35847;SDS011;22332;51.954;20.118;2023-02-18T10:57:12;11.30;;;4.90;;
35847;SDS011;22332;51.954;20.118;2023-02-18T11:00:22;10.40;;;3.20;;
35847;SDS011;22332;51.954;20.118;2023-02-18T11:03:39;9.40;;;2.60;;
35847;SDS011;22332;51.954;20.118;2023-02-18T11:06:47;11.80;;;3.20;;
35847;SDS011;22332;51.954;20.118;2023-02-18T11:09:54;8.00;;;2.70;;
35847;SDS011;22332;51.954;20.118;2023-02-18T11:13:04;12.50;;;4.00;;
35847;SDS011;22332;51.954;20.118;2023-02-18T11:16:12;31.80;;;11.90;;
35847;SDS011;22332;51.954;20.118;2023-02-18T11:22:42;12.80;;;3.50;;
35847;SDS011;22332;51.954;20.118;2023-02-18T11:25:53;11.80;;;2.60;;
35847;SDS011;22332;51.954;20.118;2023-02-18T11:29:02;9.50;;;2.80;;
35847;SDS011;22332;51.954;20.118;2023-02-18T11:32:11;8.50;;;3.50;;
35847;SDS011;22332;51.954;20.118;2023-02-18T11:35:18;14.20;;;3.70;;
35847;SDS011;22332;51.954;20.118;2023-02-18T11:38:25;11.00;;;5.70;;
35847;SDS011;22332;51.954;20.118;2023-02-18T11:41:39;10.80;;;3.70;;
35847;SDS011;22332;51.954;20.118;2023-02-18T11:44:48;11.30;;;4.10;;
35847;SDS011;22332;51.954;20.118;2023-02-18T11:48:01;18.90;;;9.20;;
35847;SDS011;22332;51.954;20.118;2023-02-18T11:51:18;31.70;;;16.50;;
35847;SDS011;22332;51.954;20.118;2023-02-18T11:54:26;23.40;;;11.20;;
35847;SDS011;22332;51.954;20.118;2023-02-18T11:57:34;20.70;;;9.80;;
35847;SDS011;22332;51.954;20.118;2023-02-18T12:00:43;41.90;;;26.50;;
35847;SDS011;22332;51.954;20.118;2023-02-18T12:03:51;13.30;;;5.50;;
35847;SDS011;22332;51.954;20.118;2023-02-18T12:07:04;51.40;;;27.60;;
35847;SDS011;22332;51.954;20.118;2023-02-18T12:10:20;55.00;;;38.50;;
35847;SDS011;22332;51.954;20.118;2023-02-18T12:13:31;12.40;;;5.90;;
35847;SDS011;22332;51.954;20.118;2023-02-18T12:16:41;11.20;;;6.20;;
35847;SDS011;22332;51.954;20.118;2023-02-18T12:20:16;43.60;;;27.20;;
35847;SDS011;22332;51.954;20.118;2023-02-18T12:23:32;93.00;;;41.90;;
35847;SDS011;22332;51.954;20.118;2023-02-18T12:26:48;116.60;;;47.60;;
35847;SDS011;22332;51.954;20.118;2023-02-18T12:30:24;24.90;;;9.60;;
35847;SDS011;22332;51.954;20.118;2023-02-18T12:33:59;146.00;;;61.40;;
35847;SDS011;22332;51.954;20.118;2023-02-18T12:37:24;211.90;;;84.00;;
35847;SDS011;22332;51.954;20.118;2023-02-18T12:40:49;21.20;;;7.60;;
35847;SDS011;22332;51.954;20.118;2023-02-18T12:44:17;17.00;;;6.90;;
35847;SDS011;22332;51.954;20.118;2023-02-18T12:47:41;24.00;;;6.80;;
35847;SDS011;22332;51.954;20.118;2023-02-18T12:51:06;9.80;;;2.70;;
35847;SDS011;22332;51.954;20.118;2023-02-18T12:54:24;7.80;;;2.80;;
35847;SDS011;22332;51.954;20.118;2023-02-18T12:57:41;5.90;;;2.10;;
35847;SDS011;22332;51.954;20.118;2023-02-18T13:00:56;12.30;;;4.60;;
35847;SDS011;22332;51.954;20.118;2023-02-18T13:07:42;14.50;;;5.80;;
35847;SDS011;22332;51.954;20.118;2023-02-18T13:11:05;27.70;;;15.10;;
35847;SDS011;22332;51.954;20.118;2023-02-18T13:14:19;68.10;;;39.60;;
35847;SDS011;22332;51.954;20.118;2023-02-18T13:17:28;70.00;;;41.60;;
35847;SDS011;22332;51.954;20.118;2023-02-18T13:20:38;13.50;;;6.40;;
35847;SDS011;22332;51.954;20.118;2023-02-18T13:23:47;89.80;;;53.00;;
35847;SDS011;22332;51.954;20.118;2023-02-18T13:26:59;55.40;;;31.20;;
35847;SDS011;22332;51.954;20.118;2023-02-18T13:30:21;38.30;;;22.50;;
35847;SDS011;22332;51.954;20.118;2023-02-18T13:33:34;19.60;;;9.10;;
35847;SDS011;22332;51.954;20.118;2023-02-18T13:36:51;12.00;;;5.70;;
35847;SDS011;22332;51.954;20.118;2023-02-18T13:40:07;12.50;;;4.60;;
35847;SDS011;22332;51.954;20.118;2023-02-18T13:43:28;38.40;;;23.10;;
35847;SDS011;22332;51.954;20.118;2023-02-18T13:46:47;16.30;;;6.80;;
35847;SDS011;22332;51.954;20.118;2023-02-18T13:49:53;26.00;;;12.70;;
35847;SDS011;22332;51.954;20.118;2023-02-18T13:56:27;11.60;;;5.50;;
35847;SDS011;22332;51.954;20.118;2023-02-18T13:59:37;23.30;;;13.40;;
35847;SDS011;22332;51.954;20.118;2023-02-18T14:02:56;17.00;;;8.00;;
35847;SDS011;22332;51.954;20.118;2023-02-18T14:06:15;12.00;;;4.90;;
35847;SDS011;22332;51.954;20.118;2023-02-18T14:09:35;10.00;;;4.50;;
35847;SDS011;22332;51.954;20.118;2023-02-18T14:12:59;9.40;;;4.00;;
35847;SDS011;22332;51.954;20.118;2023-02-18T14:16:21;8.40;;;4.10;;
35847;SDS011;22332;51.954;20.118;2023-02-18T14:19:27;11.90;;;5.80;;
35847;SDS011;22332;51.954;20.118;2023-02-18T14:22:42;27.20;;;14.70;;
35847;SDS011;22332;51.954;20.118;2023-02-18T14:25:50;50.70;;;29.00;;
35847;SDS011;22332;51.954;20.118;2023-02-18T14:29:02;93.90;;;54.80;;
35847;SDS011;22332;51.954;20.118;2023-02-18T14:32:11;49.50;;;29.00;;
35847;SDS011;22332;51.954;20.118;2023-02-18T14:35:24;31.00;;;20.40;;
35847;SDS011;22332;51.954;20.118;2023-02-18T14:38:40;50.80;;;29.40;;
35847;SDS011;22332;51.954;20.118;2023-02-18T14:41:54;61.90;;;40.50;;
35847;SDS011;22332;51.954;20.118;2023-02-18T14:45:10;37.30;;;22.10;;
35847;SDS011;22332;51.954;20.118;2023-02-18T14:48:37;10.90;;;7.00;;
35847;SDS011;22332;51.954;20.118;2023-02-18T14:51:51;57.80;;;44.80;;
35847;SDS011;22332;51.954;20.118;2023-02-18T14:55:00;151.60;;;103.70;;
35847;SDS011;22332;51.954;20.118;2023-02-18T14:58:11;94.30;;;60.10;;
35847;SDS011;22332;51.954;20.118;2023-02-18T15:01:26;82.10;;;52.50;;
35847;SDS011;22332;51.954;20.118;2023-02-18T15:04:33;98.00;;;56.00;;
35847;SDS011;22332;51.954;20.118;2023-02-18T15:07:39;144.40;;;84.50;;
35847;SDS011;22332;51.954;20.118;2023-02-18T15:10:45;168.50;;;97.30;;
35847;SDS011;22332;51.954;20.118;2023-02-18T15:13:52;174.80;;;98.80;;
35847;SDS011;22332;51.954;20.118;2023-02-18T15:16:58;84.70;;;55.10;;
35847;SDS011;22332;51.954;20.118;2023-02-18T15:20:05;17.70;;;8.90;;
35847;SDS011;22332;51.954;20.118;2023-02-18T15:23:14;40.90;;;29.40;;
35847;SDS011;22332;51.954;20.118;2023-02-18T15:26:21;50.70;;;32.50;;
35847;SDS011;22332;51.954;20.118;2023-02-18T15:29:27;83.40;;;52.50;;
35847;SDS011;22332;51.954;20.118;2023-02-18T15:32:36;49.40;;;32.80;;
35847;SDS011;22332;51.954;20.118;2023-02-18T15:35:42;12.30;;;5.60;;
35847;SDS011;22332;51.954;20.118;2023-02-18T15:38:48;9.70;;;4.70;;
35847;SDS011;22332;51.954;20.118;2023-02-18T15:41:53;8.80;;;4.90;;
35847;SDS011;22332;51.954;20.118;2023-02-18T15:45:03;10.10;;;6.10;;
35847;SDS011;22332;51.954;20.118;2023-02-18T15:48:26;13.00;;;9.30;;
35847;SDS011;22332;51.954;20.118;2023-02-18T15:51:34;18.90;;;14.10;;
35847;SDS011;22332;51.954;20.118;2023-02-18T15:54:40;46.20;;;37.30;;
35847;SDS011;22332;51.954;20.118;2023-02-18T15:57:47;27.90;;;18.60;;
35847;SDS011;22332;51.954;20.118;2023-02-18T16:00:55;63.10;;;41.30;;
35847;SDS011;22332;51.954;20.118;2023-02-18T16:04:01;50.50;;;28.40;;
35847;SDS011;22332;51.954;20.118;2023-02-18T16:07:20;43.40;;;30.80;;
35847;SDS011;22332;51.954;20.118;2023-02-18T16:10:44;182.90;;;90.40;;
35847;SDS011;22332;51.954;20.118;2023-02-18T16:13:53;27.60;;;19.60;;
35847;SDS011;22332;51.954;20.118;2023-02-18T16:17:02;8.50;;;5.50;;
35847;SDS011;22332;51.954;20.118;2023-02-18T16:20:15;8.40;;;4.90;;
35847;SDS011;22332;51.954;20.118;2023-02-18T16:23:34;11.70;;;6.30;;
35847;SDS011;22332;51.954;20.118;2023-02-18T16:26:46;20.40;;;15.20;;
35847;SDS011;22332;51.954;20.118;2023-02-18T16:29:53;168.40;;;120.10;;
35847;SDS011;22332;51.954;20.118;2023-02-18T16:33:04;72.10;;;49.90;;
35847;SDS011;22332;51.954;20.118;2023-02-18T16:36:10;53.60;;;30.20;;
35847;SDS011;22332;51.954;20.118;2023-02-18T16:39:18;79.40;;;49.20;;
35847;SDS011;22332;51.954;20.118;2023-02-18T16:42:24;43.70;;;27.60;;
35847;SDS011;22332;51.954;20.118;2023-02-18T16:45:34;51.00;;;29.80;;
35847;SDS011;22332;51.954;20.118;2023-02-18T16:48:42;22.70;;;13.10;;
35847;SDS011;22332;51.954;20.118;2023-02-18T16:51:48;7.00;;;4.10;;
35847;SDS011;22332;51.954;20.118;2023-02-18T16:54:54;7.70;;;3.70;;
35847;SDS011;22332;51.954;20.118;2023-02-18T16:57:59;7.00;;;4.60;;
35847;SDS011;22332;51.954;20.118;2023-02-18T17:01:05;10.80;;;6.70;;
35847;SDS011;22332;51.954;20.118;2023-02-18T17:04:13;18.20;;;14.50;;
35847;SDS011;22332;51.954;20.118;2023-02-18T17:07:21;94.00;;;72.50;;
35847;SDS011;22332;51.954;20.118;2023-02-18T17:10:27;27.50;;;19.20;;
35847;SDS011;22332;51.954;20.118;2023-02-18T17:13:32;26.40;;;19.90;;
35847;SDS011;22332;51.954;20.118;2023-02-18T17:16:38;34.90;;;18.10;;
35847;SDS011;22332;51.954;20.118;2023-02-18T17:19:43;66.40;;;29.80;;
35847;SDS011;22332;51.954;20.118;2023-02-18T17:22:49;57.80;;;26.20;;
35847;SDS011;22332;51.954;20.118;2023-02-18T17:25:54;66.70;;;26.80;;
35847;SDS011;22332;51.954;20.118;2023-02-18T17:29:00;22.50;;;11.80;;
35847;SDS011;22332;51.954;20.118;2023-02-18T17:32:07;23.20;;;10.90;;
35847;SDS011;22332;51.954;20.118;2023-02-18T17:35:16;18.00;;;8.70;;
35847;SDS011;22332;51.954;20.118;2023-02-18T17:38:23;27.30;;;11.70;;
35847;SDS011;22332;51.954;20.118;2023-02-18T17:41:29;21.30;;;9.20;;
35847;SDS011;22332;51.954;20.118;2023-02-18T17:44:34;24.20;;;12.00;;
35847;SDS011;22332;51.954;20.118;2023-02-18T17:47:40;15.70;;;10.20;;
35847;SDS011;22332;51.954;20.118;2023-02-18T17:50:45;14.50;;;9.80;;
35847;SDS011;22332;51.954;20.118;2023-02-18T17:53:51;14.20;;;10.90;;
35847;SDS011;22332;51.954;20.118;2023-02-18T17:56:57;9.90;;;6.10;;
35847;SDS011;22332;51.954;20.118;2023-02-18T18:00:03;8.50;;;4.80;;
35847;SDS011;22332;51.954;20.118;2023-02-18T18:03:13;7.50;;;3.90;;
35847;SDS011;22332;51.954;20.118;2023-02-18T18:06:22;8.80;;;4.90;;
35847;SDS011;22332;51.954;20.118;2023-02-18T18:09:27;7.50;;;4.30;;
35847;SDS011;22332;51.954;20.118;2023-02-18T18:12:33;9.50;;;8.00;;
35847;SDS011;22332;51.954;20.118;2023-02-18T18:15:39;23.80;;;20.10;;
35847;SDS011;22332;51.954;20.118;2023-02-18T18:18:45;20.00;;;14.00;;
35847;SDS011;22332;51.954;20.118;2023-02-18T18:21:51;37.80;;;27.20;;
35847;SDS011;22332;51.954;20.118;2023-02-18T18:24:57;33.90;;;24.80;;
35847;SDS011;22332;51.954;20.118;2023-02-18T18:28:02;43.30;;;27.90;;
35847;SDS011;22332;51.954;20.118;2023-02-18T18:31:09;15.50;;;9.20;;
35847;SDS011;22332;51.954;20.118;2023-02-18T18:34:17;126.30;;;72.20;;
35847;SDS011;22332;51.954;20.118;2023-02-18T18:37:23;78.80;;;44.10;;
35847;SDS011;22332;51.954;20.118;2023-02-18T18:40:29;100.00;;;52.40;;
35847;SDS011;22332;51.954;20.118;2023-02-18T18:43:35;101.00;;;58.60;;
35847;SDS011;22332;51.954;20.118;2023-02-18T18:46:42;39.40;;;22.40;;
35847;SDS011;22332;51.954;20.118;2023-02-18T18:49:47;29.20;;;17.20;;
35847;SDS011;22332;51.954;20.118;2023-02-18T18:52:53;45.80;;;25.30;;
35847;SDS011;22332;51.954;20.118;2023-02-18T18:55:59;35.90;;;17.20;;